CEB857 RPLL-RPMZ
Flight info
| Callsign | CEB857 |
|---|---|
| Flight time | N/A |
| Altitude | 37000 |
| Route | HARBO1 HARBO DCT VERDE A461 TINDO TINDO1W |
| Aircraft | A20N/M-SDE2E3FGHIJ1RWXY/LB1 |
Departure
| Time | N/A |
|---|---|
| Airport | Ninoy Aquino International Airport (RPLL) |
Arrival
| Time | 2026-04-14 08:47 |
|---|---|
| Airport | Zamboanga International Airport (RPMZ) |
| Time | Latitude | Longitude | Altitude | Speed | Heading |
|---|---|---|---|---|---|
| 2026-04-14 08:42 | 6.91362 | 122.28122 | 3117 ft | 206 kts | 232° |
| 2026-04-14 08:42 | 6.90810 | 122.26823 | 2871 ft | 198 kts | 264° |
| 2026-04-14 08:43 | 6.90828 | 122.25449 | 2836 ft | 196 kts | 276° |
| 2026-04-14 08:43 | 6.90952 | 122.24116 | 2732 ft | 184 kts | 277° |
| 2026-04-14 08:43 | 6.91068 | 122.22885 | 2690 ft | 168 kts | 278° |
| 2026-04-14 08:43 | 6.91186 | 122.21737 | 2618 ft | 160 kts | 278° |
| 2026-04-14 08:44 | 6.91283 | 122.20654 | 2523 ft | 152 kts | 277° |
| 2026-04-14 08:44 | 6.91362 | 122.19600 | 2431 ft | 151 kts | 276° |
| 2026-04-14 08:44 | 6.91433 | 122.18548 | 2232 ft | 150 kts | 276° |
| 2026-04-14 08:44 | 6.91499 | 122.17488 | 2030 ft | 150 kts | 276° |
| 2026-04-14 08:45 | 6.91565 | 122.16425 | 1827 ft | 149 kts | 276° |
| 2026-04-14 08:45 | 6.91630 | 122.15391 | 1639 ft | 149 kts | 275° |
| 2026-04-14 08:45 | 6.91697 | 122.14352 | 1439 ft | 148 kts | 275° |
| 2026-04-14 08:45 | 6.91764 | 122.13314 | 1232 ft | 146 kts | 275° |
| 2026-04-14 08:46 | 6.91830 | 122.12298 | 1055 ft | 145 kts | 274° |
| 2026-04-14 08:46 | 6.91895 | 122.11282 | 862 ft | 143 kts | 273° |
| 2026-04-14 08:46 | 6.91962 | 122.10278 | 669 ft | 143 kts | 273° |
| 2026-04-14 08:46 | 6.92026 | 122.09274 | 493 ft | 142 kts | 272° |
| 2026-04-14 08:47 | 6.92097 | 122.08276 | 291 ft | 141 kts | 272° |
| 2026-04-14 08:47 | 6.92158 | 122.07294 | 128 ft | 142 kts | 271° |
| 2026-04-14 08:47 | 6.92217 | 122.06329 | 66 ft | 120 kts | 273° |
| 2026-04-14 08:47 | 6.92255 | 122.05792 | 66 ft | 32 kts | 272° |
| 2026-04-14 08:48 | 6.92259 | 122.05703 | 66 ft | 5 kts | 268° |
| 2026-04-14 08:48 | 6.92254 | 122.05666 | 66 ft | 5 kts | 264° |
| 2026-04-14 08:48 | 6.92260 | 122.05624 | 66 ft | 5 kts | 302° |
| 2026-04-14 08:48 | 6.92273 | 122.05602 | 66 ft | 1 kts | 232° |
| 2026-04-14 08:49 | 6.92266 | 122.05610 | 66 ft | 3 kts | 97° |
| 2026-04-14 08:49 | 6.92263 | 122.05647 | 66 ft | 7 kts | 94° |
| 2026-04-14 08:49 | 6.92258 | 122.05717 | 66 ft | 11 kts | 95° |
| 2026-04-14 08:49 | 6.92253 | 122.05799 | 66 ft | 12 kts | 92° |
| 2026-04-14 08:50 | 6.92248 | 122.05888 | 66 ft | 12 kts | 93° |
| 2026-04-14 08:50 | 6.92236 | 122.05968 | 66 ft | 9 kts | 123° |